Sign-in with your pilot id or email, or register

ICAO: EGHH Name / Country: Bournemouth Airport / United Kingdom
Latitude: 50.78 Longitude: -1.8425
Total Arrivals:
Strict Standards: Non-static method AirportData::getarrflights() should not be called statically, assuming $this from incompatible context in /var/www/customers/vh-7192/web/home/phpvms/core/templates/airport_info.tpl on line 18
2
Total Departures:
Strict Standards: Non-static method AirportData::getdeptflights() should not be called statically, assuming $this from incompatible context in /var/www/customers/vh-7192/web/home/phpvms/core/templates/airport_info.tpl on line 21
2
Latest Arrival: MTA1B (LHBP-EGHH) Tibor Berces Latest Departure: MTA1A (EGHH-LHBP) Tibor Berces
Metar: EGHH 172120Z 01003KT CAVOK 11/07 Q1026
More info

Charts for EGHH


NOTAM


Warning: file_get_contents(http://api.vateud.net/notams/EGHH.json): failed to open stream: Redirection limit reached, aborting in /var/www/customers/vh-7192/web/home/phpvms/core/common/NOTAMSData.class.php on line 18

Warning: Invalid argument supplied for foreach() in /var/www/customers/vh-7192/web/home/phpvms/core/common/NOTAMSData.class.php on line 22

Bournemouth Airport